West Falls, New York
Current Conditions -  °F | °C
As of 3:54 PM on Thursday 18 Dec 2014 (Local Time) from KBUF Reporting Station
Overcast Overcast  
Wind Chill: 21°   Ceiling: 1300
Heat Index: 31°   Visibility: 10mi
Dew Point: 26°   Wind: 14mph
Humidity: 82%   Direction: 270°W
Pressure: 30.06"   Gusts: NA
Location:  42.7°N, 78.68°W
Report Text: KBUF 182054Z 27012KT 10SM BKN013 OVC037 M01/M03 A3006 RMK AO2 SNE43 SLP189 CIG 011V015 P0000 60000 I3000 T10061033 53001
Loading
Personal Weather Stations






























Interactive Weather Map New forecast layout! Learn more

10-Day Weather Forecast

Advertisements
Track Severe Weather on mobile